Station Historical Data
Daily Summary for February 13, 2012 Units:  Metric    English   Both
« Previous Day
Next Day »
Daily Weekly Monthly Yearly Custom
  High: Low: Average:
Temperature: 5 °C -6.1 °C 0 °C
Dew Point: 0.4 °C -12.1 °C -6.7 °C
Humidity: 88% 44% 62%
Wind Speed: 17.7km/h 0km/h 5.1km/h
Wind Gust: 24.1km/h - -
Wind- - ESE
Pressure: 1029 hPa 1016.5 hPa -
Precipitation: 1.78 mm    
Historical Graphs
 
 
Tabular Data for February 13, 2012
Time Temperature Dew Point Pressure Wind Wind Speed Wind Gust Humidity Rainfall Rate (Hourly) Conditions
00:00 -3.3 °C -11.9 °C 1029 hPa Calm     51% 0 mm
00:01 -3.3 °C -12 °C 1029 hPa Calm     51% 0 mm
00:06 -3.7 °C -11.9 °C 1029 hPa Calm     53% 0 mm
00:11 -3.8 °C -11.7 °C 1029 hPa Calm     54% 0 mm
00:16 -3.6 °C -11.8 °C 1029 hPa Calm     53% 0 mm
00:21 -3.2 °C -11.7 °C 1028.7 hPa Calm     52% 0 mm
00:26 -3 °C -11.7 °C 1028.7 hPa Calm   1.6 km/h 51% 0 mm
00:31 -3 °C -11.7 °C 1028.7 hPa Calm     51% 0 mm
00:36 -3.3 °C -11.8 °C 1028.7 hPa Calm     52% 0 mm
00:41 -3.7 °C -12.1 °C 1028.7 hPa Calm     52% 0 mm
00:46 -3.7 °C -11.9 °C 1028.7 hPa Calm     53% 0 mm
00:51 -3.8 °C -11.8 °C 1028.7 hPa Calm     54% 0 mm
00:56 -4.1 °C -11.7 °C 1028.7 hPa Calm     55% 0 mm
01:01 -4.3 °C -11.5 °C 1028.7 hPa Calm     57% 0 mm
01:06 -4.6 °C -12 °C 1028.7 hPa Calm     56% 0 mm
01:11 -4.5 °C -11.9 °C 1028.7 hPa Calm     56% 0 mm
01:16 -4.3 °C -11.6 °C 1028.7 hPa Calm     57% 0 mm
01:21 -4.3 °C -11.5 °C 1028.7 hPa Calm     57% 0 mm
01:26 -4.3 °C -11.3 °C 1028.7 hPa Calm     58% 0 mm
01:31 -4.5 °C -11.5 °C 1028.3 hPa Calm     58% 0 mm
01:36 -4.3 °C -11.5 °C 1028.3 hPa Calm     57% 0 mm
01:42 -3.9 °C -11.6 °C 1028.3 hPa North 1.6 km/h 3.2 km/h 55% 0 mm
01:47 -3.6 °C -11.5 °C 1028.3 hPa NNE 1.6 km/h 3.2 km/h 54% 0 mm
01:52 -3.3 °C -11.6 °C 1028.3 hPa NNE 1.6 km/h 3.2 km/h 53% 0 mm
01:57 -3.2 °C -11.6 °C 1028.3 hPa NNE 3.2 km/h 3.2 km/h 52% 0 mm
02:02 -3.1 °C -11.5 °C 1028.3 hPa NNE 1.6 km/h 1.6 km/h 52% 0 mm
02:07 -3.2 °C -11.4 °C 1028.3 hPa Calm   1.6 km/h 53% 0 mm
02:12 -3.3 °C -11.6 °C 1028 hPa Calm   1.6 km/h 53% 0 mm
02:17 -3.4 °C -11.6 °C 1028 hPa NNE 1.6 km/h 3.2 km/h 53% 0 mm
02:22 -3.3 °C -11.5 °C 1028 hPa NNE 1.6 km/h 3.2 km/h 53% 0 mm
02:27 -3.2 °C -11.7 °C 1028 hPa NNE 3.2 km/h 3.2 km/h 52% 0 mm
02:32 -3.2 °C -11.6 °C 1027.7 hPa NE 1.6 km/h 3.2 km/h 52% 0 mm
02:37 -3.2 °C -11.6 °C 1027.7 hPa NE 1.6 km/h 1.6 km/h 52% 0 mm
02:42 -3.2 °C -11.6 °C 1027.7 hPa Calm   1.6 km/h 52% 0 mm
02:47 -3.3 °C -11.5 °C 1027.7 hPa Calm   1.6 km/h 53% 0 mm
02:52 -3.6 °C -11.3 °C 1027.7 hPa Calm   1.6 km/h 55% 0 mm
02:57 -3.8 °C -11.5 °C 1027.7 hPa NE 1.6 km/h 1.6 km/h 55% 0 mm
03:02 -3.7 °C -11.7 °C 1027.3 hPa NE 3.2 km/h 4.8 km/h 54% 0 mm
03:07 -3.7 °C -11.6 °C 1027.3 hPa NE 3.2 km/h 4.8 km/h 54% 0 mm
03:12 -3.7 °C -11.6 °C 1027.3 hPa NNE 1.6 km/h 4.8 km/h 54% 0 mm
03:17 -3.6 °C -11.5 °C 1027.3 hPa NNE 3.2 km/h 4.8 km/h 54% 0 mm
03:22 -3.4 °C -11.4 °C 1027 hPa NNE 4.8 km/h 4.8 km/h 54% 0 mm
03:27 -3.4 °C -11.4 °C 1027.3 hPa NE 1.6 km/h 3.2 km/h 54% 0 mm
03:32 -3.4 °C -11.4 °C 1027.3 hPa Calm   3.2 km/h 54% 0 mm
03:38 -3.5 °C -11.4 °C 1027.3 hPa Calm   1.6 km/h 54% 0 mm
03:43 -3.8 °C -11.6 °C 1027.3 hPa Calm     55% 0 mm
03:48 -4.3 °C -11.3 °C 1027.3 hPa Calm     58% 0 mm
03:53 -4.8 °C -11.6 °C 1027 hPa Calm     59% 0 mm
03:58 -4.8 °C -11.6 °C 1027 hPa Calm     59% 0 mm
04:03 -4.8 °C -11.3 °C 1027 hPa Calm     60% 0 mm
04:08 -4.8 °C -10.9 °C 1027 hPa Calm     62% 0 mm
04:13 -4.8 °C -10.8 °C 1027 hPa Calm   1.6 km/h 63% 0 mm
04:18 -4.9 °C -10.8 °C 1027 hPa Calm     63% 0 mm
04:23 -5.2 °C -10.9 °C 1027.3 hPa Calm     64% 0 mm
04:28 -5.5 °C -11.2 °C 1027.3 hPa Calm     64% 0 mm
04:33 -5.8 °C -11.2 °C 1027.3 hPa Calm     66% 0 mm
04:38 -5.8 °C -10.9 °C 1027.3 hPa Calm     67% 0 mm
04:43 -6.1 °C -11.6 °C 1027 hPa Calm     65% 0 mm
04:48 -6.1 °C -11.6 °C 1027 hPa Calm     65% 0 mm
04:53 -5.6 °C -11.4 °C 1027 hPa Calm     63% 0 mm
04:58 -5.4 °C -11.1 °C 1027 hPa Calm     64% 0 mm
05:03 -5.4 °C -11.4 °C 1027 hPa Calm     63% 0 mm
05:08 -5.5 °C -11.6 °C 1027.3 hPa Calm     62% 0 mm
05:13 -5.6 °C -11.7 °C 1027.3 hPa Calm     62% 0 mm
05:18 -5.7 °C -11.4 °C 1027 hPa Calm     64% 0 mm
05:23 -5.4 °C -11.4 °C 1027.3 hPa Calm     63% 0 mm
05:28 -5.3 °C -11.3 °C 1027 hPa Calm     63% 0 mm
05:33 -5 °C -11.6 °C 1026.6 hPa NE 3.2 km/h 4.8 km/h 60% 0 mm
05:38 -4.5 °C -11.1 °C 1026.6 hPa ENE 1.6 km/h 3.2 km/h 60% 0 mm
05:43 -4.1 °C -11.2 °C 1026.6 hPa ENE 3.2 km/h 6.4 km/h 58% 0 mm
05:48 -3.9 °C -10.9 °C 1026.6 hPa NE 3.2 km/h 6.4 km/h 58% 0 mm
05:53 -3.8 °C -10.8 °C 1026.3 hPa NE 6.4 km/h 6.4 km/h 58% 0 mm
05:59 -3.7 °C -10.9 °C 1026.3 hPa NE 3.2 km/h 6.4 km/h 57% 0 mm
06:04 -3.7 °C -11.2 °C 1026.6 hPa East 1.6 km/h 3.2 km/h 56% 0 mm
06:09 -3.8 °C -10.9 °C 1026.6 hPa ESE 1.6 km/h 1.6 km/h 58% 0 mm
06:14 -4.1 °C -10.7 °C 1026.6 hPa Calm     60% 0 mm
06:19 -4.3 °C -10.7 °C 1026.6 hPa Calm     61% 0 mm
06:24 -4.4 °C -10.6 °C 1026.6 hPa Calm     62% 0 mm
06:29 -4.7 °C -10.6 °C 1026.6 hPa Calm     63% 0 mm
06:34 -5.1 °C -10.4 °C 1027 hPa Calm     66% 0 mm
06:39 -5.1 °C -10.4 °C 1026.6 hPa Calm     66% 0 mm
06:44 -4.9 °C -10.9 °C 1026.6 hPa East 1.6 km/h 1.6 km/h 63% 0 mm
06:49 -4.7 °C -10.9 °C 1026.6 hPa Calm   1.6 km/h 62% 0 mm
06:54 -4.6 °C -11 °C 1026.6 hPa Calm     61% 0 mm
06:59 -4.7 °C -10.7 °C 1026.6 hPa Calm     63% 0 mm
07:04 -4.7 °C -10.8 °C 1026.6 hPa Calm     62% 0 mm
07:09 -4.5 °C -10.7 °C 1026.6 hPa Calm     62% 0 mm
07:14 -4.3 °C -10.7 °C 1026.6 hPa Calm     61% 0 mm
07:19 -4 °C -10.8 °C 1026.6 hPa ESE 1.6 km/h 4.8 km/h 59% 0 mm
07:24 -3.8 °C -10.7 °C 1026.6 hPa East 1.6 km/h 3.2 km/h 59% 0 mm
07:29 -3.9 °C -10.1 °C 1027 hPa ESE 3.2 km/h 3.2 km/h 62% 0 mm
07:34 -3.9 °C -10.3 °C 1027 hPa East 3.2 km/h 3.2 km/h 61% 0 mm
07:39 -3.9 °C -10.3 °C 1027 hPa ESE 3.2 km/h 3.2 km/h 61% 0 mm
07:44 -3.8 °C -9.8 °C 1027.3 hPa SE 3.2 km/h 4.8 km/h 63% 0 mm
07:49 -3.8 °C -9.2 °C 1027 hPa ESE 3.2 km/h 4.8 km/h 66% 0 mm
07:54 -3.7 °C -9.3 °C 1027 hPa ESE 3.2 km/h 3.2 km/h 65% 0 mm
07:59 -3.4 °C -8.9 °C 1027 hPa East 4.8 km/h 4.8 km/h 66% 0 mm
08:04 -3.3 °C -8.7 °C 1027 hPa ESE 4.8 km/h 8 km/h 66% 0 mm
08:09 -3.1 °C -8.5 °C 1027 hPa ESE 3.2 km/h 8 km/h 66% 0 mm
08:14 -2.8 °C -8.4 °C 1027 hPa East 4.8 km/h 8 km/h 65% 0 mm
08:19 -2.6 °C -8.7 °C 1027 hPa ESE 6.4 km/h 9.7 km/h 63% 0 mm
08:24 -2.6 °C -8.7 °C 1027 hPa ESE 6.4 km/h 8 km/h 63% 0 mm
08:29 -2.7 °C -8.3 °C 1027 hPa ESE 4.8 km/h 8 km/h 65% 0 mm
08:34 -2.7 °C -8.1 °C 1027 hPa ESE 4.8 km/h 8 km/h 66% 0 mm
08:40 -2.6 °C -7.5 °C 1027 hPa ESE 4.8 km/h 4.8 km/h 69% 0 mm
08:45 -2.6 °C -7.7 °C 1026.6 hPa ESE 3.2 km/h 6.4 km/h 68% 0 mm
08:50 -2.6 °C -7.9 °C 1027 hPa SE 4.8 km/h 6.4 km/h 67% 0 mm
08:55 -2.6 °C -8.3 °C 1027 hPa ESE 6.4 km/h 9.7 km/h 65% 0 mm
09:00 -2.6 °C -8.3 °C 1027 hPa ESE 9.7 km/h 9.7 km/h 65% 0 mm
09:05 -2.6 °C -8.1 °C 1026.6 hPa ESE 6.4 km/h 11.3 km/h 66% 0 mm
09:10 -2.6 °C -8.1 °C 1026.3 hPa ESE 12.9 km/h 12.9 km/h 66% 0 mm
09:15 -2.5 °C -7.8 °C 1026.3 hPa East 8 km/h 9.7 km/h 67% 0 mm
09:20 -2.3 °C -7.6 °C 1026.3 hPa East 4.8 km/h 8 km/h 67% 0 mm
09:25 -2.2 °C -7.5 °C 1026.6 hPa ESE 3.2 km/h 8 km/h 67% 0 mm
09:30 -2.1 °C -7.6 °C 1026.3 hPa East 6.4 km/h 9.7 km/h 66% 0 mm
09:35 -2 °C -7.5 °C 1026.3 hPa ESE 4.8 km/h 6.4 km/h 66% 0 mm
09:40 -1.9 °C -7.4 °C 1026.3 hPa ESE 11.3 km/h 11.3 km/h 66% 0 mm
09:42 -1.9 °C -7.8 °C 1026.3 hPa ESE 9.7 km/h 11.3 km/h 64% 0 mm
09:47 -1.8 °C -7.6 °C 1026.3 hPa East 4.8 km/h 8 km/h 65% 0 mm
09:52 -1.7 °C -7.2 °C 1026.3 hPa ESE 6.4 km/h 8 km/h 66% 0 mm
09:57 -1.4 °C -6.9 °C 1026 hPa ESE 6.4 km/h 8 km/h 66% 0 mm
10:02 -1.2 °C -7.3 °C 1026 hPa ESE 6.4 km/h 9.7 km/h 63% 0 mm
10:07 -1.1 °C -7.2 °C 1026 hPa ESE 6.4 km/h 9.7 km/h 63% 0 mm
10:12 -0.8 °C -6.7 °C 1026 hPa East 6.4 km/h 6.4 km/h 64% 0 mm
10:17 -0.7 °C -7.4 °C 1026 hPa ESE 12.9 km/h 16.1 km/h 60% 0 mm
10:22 -0.6 °C -7.2 °C 1026 hPa ESE 6.4 km/h 9.7 km/h 61% 0 mm
10:27 -0.4 °C -7.4 °C 1026 hPa ESE 4.8 km/h 11.3 km/h 59% 0 mm
10:32 -0.2 °C -7.4 °C 1026 hPa SE 8 km/h 11.3 km/h 58% 0 mm
10:37 0.1 °C -7.2 °C 1026.3 hPa ESE 6.4 km/h 11.3 km/h 58% 0 mm
10:42 0.3 °C -7 °C 1026.3 hPa SE 8 km/h 8 km/h 58% 0 mm
10:47 0.4 °C -7.1 °C 1026 hPa SSE 4.8 km/h 6.4 km/h 57% 0 mm
10:52 0.5 °C -7.5 °C 1026 hPa ESE 6.4 km/h 8 km/h 55% 0 mm
10:57 0.7 °C -7.3 °C 1026 hPa SSE 3.2 km/h 9.7 km/h 55% 0 mm
11:03 0.8 °C -7.2 °C 1026 hPa SE 4.8 km/h 8 km/h 55% 0 mm
11:08 0.9 °C -7.1 °C 1026 hPa SE 8 km/h 9.7 km/h 55% 0 mm
11:13 0.9 °C -7.3 °C 1026 hPa ESE 8 km/h 9.7 km/h 54% 0 mm
11:18 1 °C -7.3 °C 1026 hPa SE 6.4 km/h 9.7 km/h 54% 0 mm
11:23 1.1 °C -7.7 °C 1025.6 hPa SE 4.8 km/h 11.3 km/h 52% 0 mm
11:28 1.3 °C -7.5 °C 1025.6 hPa SE 8 km/h 11.3 km/h 52% 0 mm
11:33 1.3 °C -7.7 °C 1025.6 hPa SE 6.4 km/h 9.7 km/h 51% 0 mm
11:38 1.4 °C -7.6 °C 1025.3 hPa ESE 12.9 km/h 16.1 km/h 51% 0 mm
11:43 1.4 °C -7.9 °C 1025.3 hPa ESE 16.1 km/h 16.1 km/h 50% 0 mm
11:48 1.5 °C -7.6 °C 1024.9 hPa SE 8 km/h 14.5 km/h 51% 0 mm
11:53 1.7 °C -7.9 °C 1024.9 hPa SE 11.3 km/h 14.5 km/h 49% 0 mm
11:58 1.8 °C -7.6 °C 1024.9 hPa ESE 8 km/h 12.9 km/h 50% 0 mm
12:03 1.8 °C -7.7 °C 1024.6 hPa SE 8 km/h 16.1 km/h 49% 0 mm
12:08 1.8 °C -7.5 °C 1024.6 hPa ESE 8 km/h 11.3 km/h 50% 0 mm
12:13 1.9 °C -7.4 °C 1024.6 hPa SE 9.7 km/h 12.9 km/h 50% 0 mm
12:18 2 °C -7.3 °C 1024.6 hPa SE 6.4 km/h 12.9 km/h 50% 0 mm
12:23 2.2 °C -7.2 °C 1024.6 hPa SE 8 km/h 9.7 km/h 50% 0 mm
12:28 2.3 °C -7.3 °C 1024.3 hPa SE 11.3 km/h 16.1 km/h 49% 0 mm
12:33 2.1 °C -7.8 °C 1024.3 hPa SE 8 km/h 12.9 km/h 48% 0 mm
12:38 2.1 °C -7.6 °C 1024.3 hPa SE 9.7 km/h 14.5 km/h 49% 0 mm
12:43 2.2 °C -7.4 °C 1024.3 hPa SSE 6.4 km/h 14.5 km/h 49% 0 mm
12:48 2.4 °C -6.7 °C 1023.9 hPa ESE 6.4 km/h 9.7 km/h 51% 0 mm
12:54 2.6 °C -7.3 °C 1023.9 hPa SE 9.7 km/h 11.3 km/h 48% 0 mm
12:59 2.7 °C -6.9 °C 1023.9 hPa SE 8 km/h 11.3 km/h 49% 0 mm
13:04 2.8 °C -7.2 °C 1023.6 hPa South 6.4 km/h 11.3 km/h 48% 0 mm
13:09 3.1 °C -7.2 °C 1023.6 hPa South 6.4 km/h 8 km/h 47% 0 mm
13:14 3.2 °C -7.3 °C 1023.2 hPa SSE 6.4 km/h 12.9 km/h 46% 0 mm
13:19 3.4 °C -6.6 °C 1023.2 hPa SSE 8 km/h 11.3 km/h 48% 0 mm
13:24 3.7 °C -6.9 °C 1023.2 hPa ESE 6.4 km/h 9.7 km/h 46% 0 mm
13:29 3.6 °C -7.2 °C 1022.9 hPa Calm   8 km/h 45% 0 mm
13:34 3.6 °C -7.5 °C 1022.9 hPa SSW 3.2 km/h 11.3 km/h 44% 0 mm
13:39 3.7 °C -7.2 °C 1022.9 hPa South 6.4 km/h 8 km/h 45% 0 mm
13:44 3.7 °C -7.1 °C 1022.9 hPa SE 8 km/h 9.7 km/h 45% 0 mm
13:49 3.8 °C -7 °C 1022.6 hPa SE 8 km/h 9.7 km/h 45% 0 mm
13:54 3.8 °C -7 °C 1022.2 hPa SE 8 km/h 9.7 km/h 45% 0 mm
13:59 4 °C -6.8 °C 1021.9 hPa SE 6.4 km/h 9.7 km/h 45% 0 mm
14:04 4 °C -7.2 °C 1021.9 hPa ESE 6.4 km/h 11.3 km/h 44% 0 mm
14:09 4.2 °C -7 °C 1021.6 hPa ESE 1.6 km/h 8 km/h 44% 0 mm
14:14 4.2 °C -6.9 °C 1021.6 hPa SE 3.2 km/h 12.9 km/h 44% 0 mm
14:19 4.2 °C -6.9 °C 1021.6 hPa ESE 1.6 km/h 6.4 km/h 44% 0 mm
14:24 4.3 °C -6.9 °C 1021.6 hPa SSE 6.4 km/h 9.7 km/h 44% 0 mm
14:29 4.4 °C -6.2 °C 1021.6 hPa South 3.2 km/h 8 km/h 46% 0 mm
14:34 4.6 °C -6.7 °C 1021.2 hPa SE 6.4 km/h 9.7 km/h 44% 0 mm
14:40 4.4 °C -6.7 °C 1021.2 hPa SE 4.8 km/h 9.7 km/h 44% 0 mm
14:46 4.3 °C -6.3 °C 1021.2 hPa ESE 8 km/h 9.7 km/h 46% 0 mm
14:51 4.4 °C -6.8 °C 1021.2 hPa SSE 8 km/h 9.7 km/h 44% 0 mm
14:56 4.4 °C -6.2 °C 1021.2 hPa South 4.8 km/h 9.7 km/h 46% 0 mm
15:01 4.4 °C -6.5 °C 1021.2 hPa SSE 6.4 km/h 11.3 km/h 45% 0 mm
15:06 4.3 °C -6.9 °C 1021.2 hPa SSE 8 km/h 9.7 km/h 44% 0 mm
15:11 4.3 °C -6.6 °C 1021.2 hPa SSE 6.4 km/h 6.4 km/h 45% 0 mm
15:16 4.4 °C -6.2 °C 1020.9 hPa SSE 6.4 km/h 11.3 km/h 46% 0 mm
15:21 4.4 °C -5.9 °C 1020.9 hPa South 3.2 km/h 6.4 km/h 47% 0 mm
15:26 4.4 °C -6.2 °C 1020.9 hPa South 3.2 km/h 6.4 km/h 46% 0 mm
15:31 4.4 °C -5.9 °C 1020.5 hPa SW 1.6 km/h 6.4 km/h 47% 0 mm
15:36 4.6 °C -6 °C 1020.5 hPa SE 4.8 km/h 6.4 km/h 46% 0 mm
15:41 4.6 °C -5.7 °C 1020.2 hPa ESE 4.8 km/h 8 km/h 47% 0 mm
15:46 4.6 °C -6.1 °C 1020.2 hPa SE 3.2 km/h 6.4 km/h 46% 0 mm
15:51 4.6 °C -5.7 °C 1020.2 hPa South 4.8 km/h 9.7 km/h 47% 0 mm
15:56 4.8 °C -5.6 °C 1020.2 hPa SSE 6.4 km/h 8 km/h 47% 0 mm
16:01 4.8 °C -5.6 °C 1020.2 hPa South 3.2 km/h 6.4 km/h 47% 0 mm
16:06 4.7 °C -5.6 °C 1020.2 hPa SE 1.6 km/h 4.8 km/h 47% 0 mm
16:11 4.8 °C -5.5 °C 1020.2 hPa SSE 4.8 km/h 4.8 km/h 47% 0 mm
16:16 4.9 °C -5.8 °C 1020.2 hPa SSE 6.4 km/h 9.7 km/h 46% 0 mm
16:21 4.8 °C -6.1 °C 1020.2 hPa SSE 6.4 km/h 9.7 km/h 45% 0 mm
16:26 4.9 °C -5.4 °C 1019.9 hPa SSE 8 km/h 9.7 km/h 47% 0 mm
16:31 5 °C -5.1 °C 1020.2 hPa SSE 9.7 km/h 9.7 km/h 48% 0 mm
16:36 4.9 °C -5.2 °C 1020.2 hPa ESE 9.7 km/h 9.7 km/h 48% 0 mm
16:41 4.8 °C -5 °C 1020.2 hPa SE 8 km/h 8 km/h 49% 0 mm
16:46 4.7 °C -5.6 °C 1019.9 hPa ESE 12.9 km/h 14.5 km/h 47% 0 mm
16:51 4.7 °C -5.7 °C 1019.9 hPa SE 8 km/h 9.7 km/h 47% 0 mm
16:56 4.7 °C -5.7 °C 1019.9 hPa SSE 6.4 km/h 12.9 km/h 47% 0 mm
17:01 4.7 °C -5.4 °C 1019.9 hPa SE 6.4 km/h 9.7 km/h 48% 0 mm
17:06 4.7 °C -5.4 °C 1019.9 hPa SSE 6.4 km/h 11.3 km/h 48% 0 mm
17:11 4.6 °C -5.2 °C 1019.9 hPa ESE 3.2 km/h 8 km/h 49% 0 mm
17:16 4.6 °C -5.5 °C 1020.2 hPa South 1.6 km/h 9.7 km/h 48% 0 mm
17:21 4.6 °C -4.9 °C 1020.5 hPa South 1.6 km/h 8 km/h 50% 0 mm
17:26 4.6 °C -4.9 °C 1020.5 hPa SSW 1.6 km/h 4.8 km/h 50% 0 mm
17:31 4.6 °C -4.9 °C 1020.9 hPa SW 6.4 km/h 6.4 km/h 50% 0 mm
17:37 4.5 °C -5 °C 1020.9 hPa SSE 9.7 km/h 9.7 km/h 50% 0 mm
17:42 4.3 °C -3.5 °C 1020.9 hPa SSW 8 km/h 19.3 km/h 57% 0 mm
17:47 3.9 °C -2.9 °C 1020.9 hPa SSW 6.4 km/h 19.3 km/h 61% 0 mm
17:52 3.6 °C -2.2 °C 1020.9 hPa South 4.8 km/h 12.9 km/h 66% 0 mm
17:57 3.3 °C -2.1 °C 1020.5 hPa South 12.9 km/h 19.3 km/h 68% 0 mm
18:02 3.1 °C -1.9 °C 1020.9 hPa SE 17.7 km/h 24.1 km/h 70% 0 mm
18:07 2.9 °C -1.7 °C 1020.5 hPa South 12.9 km/h 14.5 km/h 72% 0 mm
18:12 2.7 °C -1.4 °C 1020.5 hPa SE 12.9 km/h 16.1 km/h 74% 0 mm
18:17 2.6 °C -1.4 °C 1020.5 hPa ESE 9.7 km/h 11.3 km/h 75% 0 mm
18:22 2.5 °C -1.3 °C 1020.2 hPa SE 9.7 km/h 12.9 km/h 76% 0 mm
18:27 2.4 °C -1.3 °C 1020.2 hPa SE 8 km/h 11.3 km/h 76% 0 mm
18:32 2.4 °C -1.2 °C 1020.2 hPa SE 6.4 km/h 8 km/h 77% 0 mm
18:37 2.4 °C -1.2 °C 1020.2 hPa SE 4.8 km/h 8 km/h 77% 0 mm
18:42 2.4 °C -1.2 °C 1020.2 hPa ESE 6.4 km/h 8 km/h 77% 0 mm
18:47 2.3 °C -1.4 °C 1020.2 hPa SE 4.8 km/h 9.7 km/h 76% 0 mm
18:52 2.3 °C -1.4 °C 1020.2 hPa SE 4.8 km/h 6.4 km/h 76% 0 mm
18:57 2.3 °C -1.3 °C 1019.9 hPa ESE 4.8 km/h 6.4 km/h 77% 0 mm
19:02 2.3 °C -1.2 °C 1019.5 hPa ESE 3.2 km/h 6.4 km/h 78% 0 mm
19:07 2.2 °C -1.2 °C 1019.9 hPa SSE 4.8 km/h 8 km/h 78% 0 mm
19:12 2.3 °C -1.2 °C 1020.2 hPa SE 4.8 km/h 4.8 km/h 78% 0 mm
19:17 2.3 °C -1.2 °C 1019.9 hPa SE 4.8 km/h 6.4 km/h 78% 0 mm
19:22 2.3 °C -1.2 °C 1019.5 hPa SE 4.8 km/h 8 km/h 78% 0 mm
19:27 2.3 °C -1.3 °C 1019.5 hPa SE 4.8 km/h 8 km/h 77% 0 mm
19:32 2.3 °C -0.9 °C 1019.5 hPa SE 4.8 km/h 9.7 km/h 79% 0 mm
19:37 2.3 °C -1 °C 1019.9 hPa ESE 3.2 km/h 6.4 km/h 79% 0 mm
19:42 2.2 °C -0.9 °C 1019.5 hPa ESE 8 km/h 8 km/h 80% 0 mm
19:47 2.2 °C -0.9 °C 1019.9 hPa ESE 6.4 km/h 9.7 km/h 80% 0 mm
19:52 2.2 °C -0.9 °C 1019.9 hPa ESE 6.4 km/h 6.4 km/h 80% 0 mm
19:57 2.3 °C -0.7 °C 1019.9 hPa ESE 4.8 km/h 8 km/h 81% 0 mm
20:03 2.3 °C -0.8 °C 1019.9 hPa SE 4.8 km/h 6.4 km/h 80% 0 mm
20:08 2.4 °C -0.7 °C 1019.9 hPa SE 8 km/h 9.7 km/h 80% 0 mm
20:13 2.4 °C -0.7 °C 1019.5 hPa SE 8 km/h 9.7 km/h 80% 0 mm
20:18 2.4 °C -0.7 °C 1019.5 hPa SE 6.4 km/h 11.3 km/h 80% 0 mm
20:23 2.4 °C -0.7 °C 1019.5 hPa SE 4.8 km/h 6.4 km/h 80% 0 mm
20:28 2.4 °C -0.7 °C 1019.2 hPa ESE 9.7 km/h 14.5 km/h 80% 0 mm
20:33 2.4 °C -0.6 °C 1018.8 hPa SE 9.7 km/h 11.3 km/h 81% 0 mm
20:38 2.3 °C -0.7 °C 1018.5 hPa East 8 km/h 8 km/h 81% 0 mm
20:43 2.3 °C -0.7 °C 1018.5 hPa SE 8 km/h 11.3 km/h 81% 0 mm
20:48 2.2 °C -0.6 °C 1018.5 hPa ESE 9.7 km/h 12.9 km/h 82% 0 mm
20:53 2.3 °C -0.5 °C 1018.5 hPa ESE 9.7 km/h 12.9 km/h 82% 0 mm
20:58 2.3 °C -0.5 °C 1018.2 hPa ESE 9.7 km/h 12.9 km/h 82% 0 mm
21:03 2.3 °C -0.4 °C 1018.5 hPa SE 6.4 km/h 12.9 km/h 82% 0 mm
21:08 2.3 °C -0.5 °C 1018.5 hPa ESE 6.4 km/h 8 km/h 82% 0 mm
21:13 2.3 °C -0.4 °C 1018.5 hPa SE 6.4 km/h 9.7 km/h 82% 0 mm
21:18 2.3 °C -0.6 °C 1018.5 hPa ESE 8 km/h 12.9 km/h 81% 0 mm
21:23 2.3 °C -0.4 °C 1018.2 hPa ESE 8 km/h 11.3 km/h 82% 0 mm
21:28 2.2 °C -0.3 °C 1017.8 hPa ESE 9.7 km/h 12.9 km/h 83% 0 mm
21:33 2.2 °C -0.4 °C 1017.8 hPa ESE 9.7 km/h 11.3 km/h 83% 0 mm
21:38 2.2 °C -0.4 °C 1017.8 hPa SE 11.3 km/h 11.3 km/h 83% 0 mm
21:43 2.2 °C -0.6 °C 1018.2 hPa SE 8 km/h 12.9 km/h 82% 0 mm
21:48 2.2 °C -0.6 °C 1018.2 hPa ESE 8 km/h 12.9 km/h 82% 0 mm
21:53 2.2 °C -0.6 °C 1018.2 hPa SE 9.7 km/h 14.5 km/h 82% 0 mm
21:58 2.2 °C -0.6 °C 1018.2 hPa SE 8 km/h 12.9 km/h 82% 0 mm
22:03 2.2 °C -0.3 °C 1017.8 hPa ESE 4.8 km/h 11.3 km/h 83% 0 mm
22:08 2.2 °C -0.3 °C 1017.8 hPa SE 8 km/h 12.9 km/h 84% 0 mm
22:13 2.2 °C -0.3 °C 1018.2 hPa SE 8 km/h 9.7 km/h 84% 0 mm
22:18 2.2 °C -0.3 °C 1018.5 hPa SE 9.7 km/h 12.9 km/h 84% 0 mm
22:23 2.2 °C -0.3 °C 1018.2 hPa SE 11.3 km/h 14.5 km/h 84% 0 mm
22:28 2.2 °C -0.1 °C 1018.5 hPa ESE 14.5 km/h 14.5 km/h 85% 1.78 mm
22:33 2.2 °C -0.1 °C 1018.2 hPa SE 8 km/h 16.1 km/h 85% 1.78 mm
22:38 2.2 °C -0.1 °C 1018.2 hPa SE 9.7 km/h 14.5 km/h 85% 1.52 mm
22:44 2.2 °C -0.1 °C 1018.2 hPa SE 9.7 km/h 17.7 km/h 85% 1.27 mm
22:49 2.2 °C 0.1 °C 1018.2 hPa SE 9.7 km/h 14.5 km/h 86% 1.27 mm
22:54 2.2 °C -0.1 °C 1017.5 hPa SE 12.9 km/h 17.7 km/h 85% 1.27 mm
22:59 2.2 °C 0.1 °C 1017.8 hPa SE 12.9 km/h 17.7 km/h 86% 1.02 mm
23:04 2.2 °C 0.1 °C 1017.2 hPa ESE 17.7 km/h 19.3 km/h 86% 1.02 mm
23:09 2.1 °C 0 °C 1017.2 hPa ESE 16.1 km/h 16.1 km/h 86% 1.02 mm
23:14 2.1 °C 0 °C 1016.8 hPa ESE 11.3 km/h 17.7 km/h 86% 0 mm
23:19 2.1 °C 0 °C 1016.8 hPa ESE 8 km/h 14.5 km/h 86% 0 mm
23:24 2.1 °C 0 °C 1016.8 hPa SE 9.7 km/h 14.5 km/h 86% 0 mm
23:29 2.1 °C 0.2 °C 1016.8 hPa SE 8 km/h 14.5 km/h 87% 0 mm
23:34 2.1 °C 0.2 °C 1016.8 hPa SE 8 km/h 12.9 km/h 87% 0 mm
23:39 2.2 °C 0.2 °C 1016.8 hPa ESE 11.3 km/h 16.1 km/h 87% 0 mm
23:44 2.2 °C 0.2 °C 1016.8 hPa SE 9.7 km/h 12.9 km/h 87% 0 mm
23:49 2.2 °C 0.3 °C 1016.8 hPa SE 12.9 km/h 14.5 km/h 87% 0 mm
23:54 2.2 °C 0.4 °C 1016.5 hPa SE 12.9 km/h 14.5 km/h 88% 0 mm
23:59 2.2 °C 0.4 °C 1016.8 hPa SSE 8 km/h 16.1 km/h 88% 0 mm
Compliments of Weather Underground